sensor_id;sensor_type;location;lat;lon;timestamp;P1;durP1;ratioP1;P2;durP2;ratioP2
40256;SDS011;25977;45.462;9.210;2023-04-24T00:01:31;3.20;;;2.90;;
40256;SDS011;25977;45.462;9.210;2023-04-24T00:03:59;2.85;;;2.63;;
40256;SDS011;25977;45.462;9.210;2023-04-24T00:06:27;3.38;;;2.60;;
40256;SDS011;25977;45.462;9.210;2023-04-24T00:09:02;3.05;;;2.38;;
40256;SDS011;25977;45.462;9.210;2023-04-24T00:11:28;3.15;;;2.92;;
40256;SDS011;25977;45.462;9.210;2023-04-24T00:13:54;2.75;;;2.55;;
40256;SDS011;25977;45.462;9.210;2023-04-24T00:16:21;6.88;;;2.72;;
40256;SDS011;25977;45.462;9.210;2023-04-24T00:18:47;3.08;;;2.60;;
40256;SDS011;25977;45.462;9.210;2023-04-24T00:21:17;2.90;;;2.65;;
40256;SDS011;25977;45.462;9.210;2023-04-24T00:23:43;3.30;;;2.83;;
40256;SDS011;25977;45.462;9.210;2023-04-24T00:26:09;3.20;;;2.90;;
40256;SDS011;25977;45.462;9.210;2023-04-24T00:28:35;3.35;;;3.05;;
40256;SDS011;25977;45.462;9.210;2023-04-24T00:31:02;4.68;;;2.63;;
40256;SDS011;25977;45.462;9.210;2023-04-24T00:33:28;4.60;;;2.75;;
40256;SDS011;25977;45.462;9.210;2023-04-24T00:35:54;4.13;;;3.38;;
40256;SDS011;25977;45.462;9.210;2023-04-24T00:38:19;3.13;;;2.92;;
40256;SDS011;25977;45.462;9.210;2023-04-24T00:40:45;4.30;;;2.95;;
40256;SDS011;25977;45.462;9.210;2023-04-24T00:43:12;5.95;;;3.40;;
40256;SDS011;25977;45.462;9.210;2023-04-24T00:45:38;2.85;;;2.65;;
40256;SDS011;25977;45.462;9.210;2023-04-24T00:48:03;11.10;;;3.10;;
40256;SDS011;25977;45.462;9.210;2023-04-24T00:50:30;3.35;;;3.00;;
40256;SDS011;25977;45.462;9.210;2023-04-24T00:52:57;4.15;;;3.17;;
40256;SDS011;25977;45.462;9.210;2023-04-24T00:55:23;2.88;;;2.17;;
40256;SDS011;25977;45.462;9.210;2023-04-24T00:57:50;2.78;;;2.58;;
40256;SDS011;25977;45.462;9.210;2023-04-24T01:00:16;2.67;;;2.28;;
40256;SDS011;25977;45.462;9.210;2023-04-24T01:02:45;3.30;;;2.88;;
40256;SDS011;25977;45.462;9.210;2023-04-24T01:05:12;3.17;;;2.63;;
40256;SDS011;25977;45.462;9.210;2023-04-24T01:07:39;2.83;;;2.63;;
40256;SDS011;25977;45.462;9.210;2023-04-24T01:10:09;2.78;;;2.58;;
40256;SDS011;25977;45.462;9.210;2023-04-24T01:12:35;3.08;;;2.78;;
40256;SDS011;25977;45.462;9.210;2023-04-24T01:15:01;2.72;;;2.53;;
40256;SDS011;25977;45.462;9.210;2023-04-24T01:17:29;2.65;;;2.45;;
40256;SDS011;25977;45.462;9.210;2023-04-24T01:19:55;3.58;;;3.28;;
40256;SDS011;25977;45.462;9.210;2023-04-24T01:22:22;2.88;;;2.50;;
40256;SDS011;25977;45.462;9.210;2023-04-24T01:24:48;4.18;;;2.67;;
40256;SDS011;25977;45.462;9.210;2023-04-24T01:27:14;4.13;;;2.95;;
40256;SDS011;25977;45.462;9.210;2023-04-24T01:29:40;2.75;;;2.55;;
40256;SDS011;25977;45.462;9.210;2023-04-24T01:32:08;3.08;;;2.78;;
40256;SDS011;25977;45.462;9.210;2023-04-24T01:34:34;5.35;;;3.92;;
40256;SDS011;25977;45.462;9.210;2023-04-24T01:37:00;4.80;;;3.22;;
40256;SDS011;25977;45.462;9.210;2023-04-24T01:39:26;4.53;;;3.63;;
40256;SDS011;25977;45.462;9.210;2023-04-24T01:41:53;3.22;;;3.03;;
40256;SDS011;25977;45.462;9.210;2023-04-24T01:44:20;3.08;;;2.78;;
40256;SDS011;25977;45.462;9.210;2023-04-24T01:46:46;7.32;;;3.88;;
40256;SDS011;25977;45.462;9.210;2023-04-24T01:49:12;4.28;;;3.28;;
40256;SDS011;25977;45.462;9.210;2023-04-24T01:51:38;3.67;;;3.35;;
40256;SDS011;25977;45.462;9.210;2023-04-24T01:54:04;4.28;;;3.72;;
40256;SDS011;25977;45.462;9.210;2023-04-24T01:56:30;7.60;;;4.38;;
40256;SDS011;25977;45.462;9.210;2023-04-24T01:58:58;7.15;;;5.18;;
40256;SDS011;25977;45.462;9.210;2023-04-24T02:01:27;5.70;;;3.75;;
40256;SDS011;25977;45.462;9.210;2023-04-24T02:03:52;8.52;;;3.88;;
40256;SDS011;25977;45.462;9.210;2023-04-24T02:06:18;3.80;;;3.50;;
40256;SDS011;25977;45.462;9.210;2023-04-24T02:08:43;4.70;;;4.30;;
40256;SDS011;25977;45.462;9.210;2023-04-24T02:11:09;4.38;;;3.70;;
40256;SDS011;25977;45.462;9.210;2023-04-24T02:13:35;8.38;;;4.32;;
40256;SDS011;25977;45.462;9.210;2023-04-24T02:16:01;4.68;;;4.15;;
40256;SDS011;25977;45.462;9.210;2023-04-24T02:18:26;5.20;;;4.70;;
40256;SDS011;25977;45.462;9.210;2023-04-24T02:20:52;6.70;;;4.28;;
40256;SDS011;25977;45.462;9.210;2023-04-24T02:23:19;5.22;;;4.82;;
40256;SDS011;25977;45.462;9.210;2023-04-24T02:25:45;7.43;;;4.22;;
40256;SDS011;25977;45.462;9.210;2023-04-24T02:28:11;6.22;;;4.05;;
40256;SDS011;25977;45.462;9.210;2023-04-24T02:30:36;7.72;;;4.57;;
40256;SDS011;25977;45.462;9.210;2023-04-24T02:33:02;4.72;;;4.32;;
40256;SDS011;25977;45.462;9.210;2023-04-24T02:35:29;4.82;;;4.43;;
40256;SDS011;25977;45.462;9.210;2023-04-24T02:37:55;4.80;;;3.67;;
40256;SDS011;25977;45.462;9.210;2023-04-24T02:40:20;5.07;;;4.50;;
40256;SDS011;25977;45.462;9.210;2023-04-24T02:42:46;5.05;;;4.65;;
40256;SDS011;25977;45.462;9.210;2023-04-24T02:45:12;5.75;;;5.13;;
40256;SDS011;25977;45.462;9.210;2023-04-24T02:47:38;4.97;;;4.47;;
40256;SDS011;25977;45.462;9.210;2023-04-24T02:50:03;5.25;;;4.15;;
40256;SDS011;25977;45.462;9.210;2023-04-24T02:52:30;4.45;;;4.15;;
40256;SDS011;25977;45.462;9.210;2023-04-24T02:54:55;5.40;;;4.90;;
40256;SDS011;25977;45.462;9.210;2023-04-24T02:57:21;10.55;;;5.47;;
40256;SDS011;25977;45.462;9.210;2023-04-24T02:59:47;5.13;;;4.65;;
40256;SDS011;25977;45.462;9.210;2023-04-24T03:02:19;5.20;;;4.80;;
40256;SDS011;25977;45.462;9.210;2023-04-24T03:04:45;5.72;;;4.78;;
40256;SDS011;25977;45.462;9.210;2023-04-24T03:07:12;5.38;;;4.85;;
40256;SDS011;25977;45.462;9.210;2023-04-24T03:09:39;5.18;;;4.78;;
40256;SDS011;25977;45.462;9.210;2023-04-24T03:12:06;4.32;;;3.92;;
40256;SDS011;25977;45.462;9.210;2023-04-24T03:14:32;4.78;;;4.43;;
40256;SDS011;25977;45.462;9.210;2023-04-24T03:16:57;6.32;;;4.05;;
40256;SDS011;25977;45.462;9.210;2023-04-24T03:19:23;8.15;;;4.65;;
40256;SDS011;25977;45.462;9.210;2023-04-24T03:22:09;3.10;;;2.80;;
40256;SDS011;25977;45.462;9.210;2023-04-24T03:24:35;4.00;;;3.50;;
40256;SDS011;25977;45.462;9.210;2023-04-24T03:27:03;3.72;;;3.42;;
40256;SDS011;25977;45.462;9.210;2023-04-24T03:29:49;4.68;;;3.47;;
40256;SDS011;25977;45.462;9.210;2023-04-24T03:32:19;6.07;;;4.00;;
40256;SDS011;25977;45.462;9.210;2023-04-24T03:34:46;8.18;;;3.45;;
40256;SDS011;25977;45.462;9.210;2023-04-24T03:37:13;4.85;;;4.30;;
40256;SDS011;25977;45.462;9.210;2023-04-24T03:39:44;4.85;;;3.50;;
40256;SDS011;25977;45.462;9.210;2023-04-24T03:42:11;3.83;;;3.53;;
40256;SDS011;25977;45.462;9.210;2023-04-24T03:44:47;4.28;;;3.92;;
40256;SDS011;25977;45.462;9.210;2023-04-24T03:47:13;4.32;;;3.92;;
40256;SDS011;25977;45.462;9.210;2023-04-24T03:49:40;3.95;;;3.45;;
40256;SDS011;25977;45.462;9.210;2023-04-24T03:52:05;4.38;;;3.22;;
40256;SDS011;25977;45.462;9.210;2023-04-24T03:54:31;3.67;;;3.38;;
40256;SDS011;25977;45.462;9.210;2023-04-24T03:56:58;4.30;;;3.97;;
40256;SDS011;25977;45.462;9.210;2023-04-24T03:59:26;5.60;;;3.30;;
40256;SDS011;25977;45.462;9.210;2023-04-24T04:02:05;4.60;;;3.40;;
40256;SDS011;25977;45.462;9.210;2023-04-24T04:04:31;4.05;;;3.75;;
40256;SDS011;25977;45.462;9.210;2023-04-24T04:06:56;5.10;;;4.45;;
40256;SDS011;25977;45.462;9.210;2023-04-24T04:09:26;4.70;;;3.97;;
40256;SDS011;25977;45.462;9.210;2023-04-24T04:11:52;4.38;;;3.45;;
40256;SDS011;25977;45.462;9.210;2023-04-24T04:14:18;4.22;;;3.80;;
40256;SDS011;25977;45.462;9.210;2023-04-24T04:16:46;3.70;;;3.40;;
40256;SDS011;25977;45.462;9.210;2023-04-24T04:19:13;3.80;;;3.50;;
40256;SDS011;25977;45.462;9.210;2023-04-24T04:21:38;4.38;;;2.92;;
40256;SDS011;25977;45.462;9.210;2023-04-24T04:24:13;6.82;;;3.90;;
40256;SDS011;25977;45.462;9.210;2023-04-24T04:26:43;3.38;;;3.10;;
40256;SDS011;25977;45.462;9.210;2023-04-24T04:29:15;2.67;;;2.42;;
40256;SDS011;25977;45.462;9.210;2023-04-24T04:31:44;3.00;;;2.75;;
40256;SDS011;25977;45.462;9.210;2023-04-24T04:34:12;3.67;;;3.40;;
40256;SDS011;25977;45.462;9.210;2023-04-24T04:36:40;2.65;;;2.22;;
40256;SDS011;25977;45.462;9.210;2023-04-24T04:39:25;2.80;;;2.53;;
40256;SDS011;25977;45.462;9.210;2023-04-24T04:41:56;6.57;;;2.93;;
40256;SDS011;25977;45.462;9.210;2023-04-24T04:44:28;2.75;;;2.55;;
40256;SDS011;25977;45.462;9.210;2023-04-24T04:46:56;2.80;;;2.60;;
40256;SDS011;25977;45.462;9.210;2023-04-24T04:49:26;5.45;;;3.08;;
40256;SDS011;25977;45.462;9.210;2023-04-24T04:51:53;3.60;;;2.92;;
40256;SDS011;25977;45.462;9.210;2023-04-24T04:54:19;2.92;;;2.53;;
40256;SDS011;25977;45.462;9.210;2023-04-24T04:56:45;3.47;;;2.83;;
40256;SDS011;25977;45.462;9.210;2023-04-24T04:59:11;4.40;;;2.50;;
40256;SDS011;25977;45.462;9.210;2023-04-24T05:01:38;3.70;;;2.63;;
40256;SDS011;25977;45.462;9.210;2023-04-24T05:04:05;2.60;;;2.40;;
40256;SDS011;25977;45.462;9.210;2023-04-24T05:06:31;3.47;;;2.70;;
40256;SDS011;25977;45.462;9.210;2023-04-24T05:08:57;2.70;;;2.50;;
40256;SDS011;25977;45.462;9.210;2023-04-24T05:11:30;4.38;;;2.45;;
40256;SDS011;25977;45.462;9.210;2023-04-24T05:13:57;3.42;;;2.00;;
40256;SDS011;25977;45.462;9.210;2023-04-24T05:16:31;2.90;;;2.67;;
40256;SDS011;25977;45.462;9.210;2023-04-24T05:18:57;3.17;;;2.97;;
40256;SDS011;25977;45.462;9.210;2023-04-24T05:21:28;3.33;;;3.00;;
40256;SDS011;25977;45.462;9.210;2023-04-24T05:23:54;3.35;;;3.08;;
40256;SDS011;25977;45.462;9.210;2023-04-24T05:26:39;2.88;;;2.67;;
40256;SDS011;25977;45.462;9.210;2023-04-24T05:29:06;3.03;;;2.83;;
40256;SDS011;25977;45.462;9.210;2023-04-24T05:31:32;3.10;;;2.90;;
40256;SDS011;25977;45.462;9.210;2023-04-24T05:33:58;2.83;;;2.63;;
40256;SDS011;25977;45.462;9.210;2023-04-24T05:36:24;4.93;;;3.67;;
40256;SDS011;25977;45.462;9.210;2023-04-24T05:38:50;4.03;;;2.88;;
40256;SDS011;25977;45.462;9.210;2023-04-24T05:41:16;3.97;;;3.42;;
40256;SDS011;25977;45.462;9.210;2023-04-24T05:43:41;5.15;;;3.42;;
40256;SDS011;25977;45.462;9.210;2023-04-24T05:46:07;4.93;;;3.60;;
40256;SDS011;25977;45.462;9.210;2023-04-24T05:48:33;6.05;;;3.92;;
40256;SDS011;25977;45.462;9.210;2023-04-24T05:51:01;4.32;;;3.25;;
40256;SDS011;25977;45.462;9.210;2023-04-24T05:53:27;3.67;;;2.90;;
40256;SDS011;25977;45.462;9.210;2023-04-24T05:55:53;4.82;;;2.55;;
40256;SDS011;25977;45.462;9.210;2023-04-24T05:58:19;3.63;;;2.10;;
40256;SDS011;25977;45.462;9.210;2023-04-24T06:00:46;4.47;;;1.90;;
40256;SDS011;25977;45.462;9.210;2023-04-24T06:03:13;3.92;;;2.10;;
40256;SDS011;25977;45.462;9.210;2023-04-24T06:05:39;3.13;;;1.90;;
40256;SDS011;25977;45.462;9.210;2023-04-24T06:08:06;2.03;;;1.73;;
40256;SDS011;25977;45.462;9.210;2023-04-24T06:10:35;2.03;;;1.30;;
40256;SDS011;25977;45.462;9.210;2023-04-24T06:13:01;1.85;;;1.17;;
40256;SDS011;25977;45.462;9.210;2023-04-24T06:15:29;0.80;;;0.80;;
40256;SDS011;25977;45.462;9.210;2023-04-24T06:18:11;1.10;;;1.00;;
40256;SDS011;25977;45.462;9.210;2023-04-24T06:20:38;1.17;;;0.70;;
40256;SDS011;25977;45.462;9.210;2023-04-24T06:23:07;3.90;;;1.05;;
40256;SDS011;25977;45.462;9.210;2023-04-24T06:25:33;0.85;;;0.85;;
40256;SDS011;25977;45.462;9.210;2023-04-24T06:27:59;0.82;;;0.80;;
40256;SDS011;25977;45.462;9.210;2023-04-24T06:30:25;1.60;;;0.77;;
40256;SDS011;25977;45.462;9.210;2023-04-24T06:32:50;2.25;;;1.35;;
40256;SDS011;25977;45.462;9.210;2023-04-24T06:35:16;8.32;;;3.00;;
40256;SDS011;25977;45.462;9.210;2023-04-24T06:37:42;7.63;;;2.58;;
40256;SDS011;25977;45.462;9.210;2023-04-24T06:40:08;1.67;;;0.82;;
40256;SDS011;25977;45.462;9.210;2023-04-24T06:42:35;1.25;;;1.15;;
40256;SDS011;25977;45.462;9.210;2023-04-24T06:45:02;1.20;;;0.93;;
40256;SDS011;25977;45.462;9.210;2023-04-24T06:47:29;20.75;;;5.57;;
40256;SDS011;25977;45.462;9.210;2023-04-24T06:49:54;2.70;;;1.20;;
40256;SDS011;25977;45.462;9.210;2023-04-24T06:52:20;0.93;;;0.93;;
40256;SDS011;25977;45.462;9.210;2023-04-24T06:54:46;1.23;;;1.13;;
40256;SDS011;25977;45.462;9.210;2023-04-24T06:57:12;4.82;;;1.20;;
40256;SDS011;25977;45.462;9.210;2023-04-24T06:59:37;2.55;;;1.58;;
40256;SDS011;25977;45.462;9.210;2023-04-24T07:02:03;1.02;;;1.00;;
40256;SDS011;25977;45.462;9.210;2023-04-24T07:04:29;1.77;;;1.45;;
40256;SDS011;25977;45.462;9.210;2023-04-24T07:06:56;3.13;;;1.52;;
40256;SDS011;25977;45.462;9.210;2023-04-24T07:09:23;3.53;;;1.58;;
40256;SDS011;25977;45.462;9.210;2023-04-24T07:11:50;1.85;;;1.75;;
40256;SDS011;25977;45.462;9.210;2023-04-24T07:14:17;2.75;;;1.80;;
40256;SDS011;25977;45.462;9.210;2023-04-24T07:16:43;3.20;;;1.33;;
40256;SDS011;25977;45.462;9.210;2023-04-24T07:19:09;4.50;;;1.60;;
40256;SDS011;25977;45.462;9.210;2023-04-24T07:21:35;2.92;;;1.30;;
40256;SDS011;25977;45.462;9.210;2023-04-24T07:24:01;3.15;;;1.77;;
40256;SDS011;25977;45.462;9.210;2023-04-24T07:26:28;2.13;;;1.52;;
40256;SDS011;25977;45.462;9.210;2023-04-24T07:28:55;1.67;;;1.58;;
40256;SDS011;25977;45.462;9.210;2023-04-24T07:31:21;1.80;;;1.70;;
40256;SDS011;25977;45.462;9.210;2023-04-24T07:33:46;1.48;;;1.30;;
40256;SDS011;25977;45.462;9.210;2023-04-24T07:36:12;4.18;;;1.50;;
40256;SDS011;25977;45.462;9.210;2023-04-24T07:38:42;2.58;;;1.45;;
40256;SDS011;25977;45.462;9.210;2023-04-24T07:41:08;2.22;;;1.55;;
40256;SDS011;25977;45.462;9.210;2023-04-24T07:43:34;1.98;;;1.77;;
40256;SDS011;25977;45.462;9.210;2023-04-24T07:46:00;2.35;;;1.20;;
40256;SDS011;25977;45.462;9.210;2023-04-24T07:48:26;2.75;;;1.40;;
40256;SDS011;25977;45.462;9.210;2023-04-24T07:50:52;1.95;;;1.85;;
40256;SDS011;25977;45.462;9.210;2023-04-24T07:53:18;2.72;;;1.88;;
40256;SDS011;25977;45.462;9.210;2023-04-24T07:55:44;3.17;;;2.35;;
40256;SDS011;25977;45.462;9.210;2023-04-24T07:58:10;2.20;;;2.00;;
40256;SDS011;25977;45.462;9.210;2023-04-24T08:00:35;2.75;;;1.70;;
40256;SDS011;25977;45.462;9.210;2023-04-24T08:03:01;4.75;;;1.60;;
40256;SDS011;25977;45.462;9.210;2023-04-24T08:05:27;1.42;;;1.30;;
40256;SDS011;25977;45.462;9.210;2023-04-24T08:07:53;1.17;;;0.98;;
40256;SDS011;25977;45.462;9.210;2023-04-24T08:10:20;1.42;;;1.35;;
40256;SDS011;25977;45.462;9.210;2023-04-24T08:12:47;1.25;;;1.20;;
40256;SDS011;25977;45.462;9.210;2023-04-24T08:15:12;1.48;;;1.38;;
40256;SDS011;25977;45.462;9.210;2023-04-24T08:17:38;1.20;;;1.20;;
40256;SDS011;25977;45.462;9.210;2023-04-24T08:20:04;1.83;;;1.42;;
40256;SDS011;25977;45.462;9.210;2023-04-24T08:22:30;2.53;;;1.10;;
40256;SDS011;25977;45.462;9.210;2023-04-24T08:24:56;1.83;;;1.50;;
40256;SDS011;25977;45.462;9.210;2023-04-24T08:27:22;2.35;;;1.77;;
40256;SDS011;25977;45.462;9.210;2023-04-24T08:29:49;2.05;;;1.85;;
40256;SDS011;25977;45.462;9.210;2023-04-24T08:32:15;2.60;;;1.35;;
40256;SDS011;25977;45.462;9.210;2023-04-24T08:34:41;2.38;;;1.45;;
40256;SDS011;25977;45.462;9.210;2023-04-24T08:37:07;1.95;;;1.40;;
40256;SDS011;25977;45.462;9.210;2023-04-24T08:39:33;3.40;;;1.50;;
40256;SDS011;25977;45.462;9.210;2023-04-24T08:41:58;2.63;;;1.33;;
40256;SDS011;25977;45.462;9.210;2023-04-24T08:44:31;1.35;;;1.25;;
40256;SDS011;25977;45.462;9.210;2023-04-24T08:46:57;1.65;;;1.08;;
40256;SDS011;25977;45.462;9.210;2023-04-24T08:49:24;2.35;;;1.20;;
40256;SDS011;25977;45.462;9.210;2023-04-24T08:51:52;2.33;;;0.98;;
40256;SDS011;25977;45.462;9.210;2023-04-24T08:54:18;0.90;;;0.90;;
40256;SDS011;25977;45.462;9.210;2023-04-24T08:56:44;0.60;;;0.60;;
40256;SDS011;25977;45.462;9.210;2023-04-24T08:59:13;1.48;;;0.93;;
40256;SDS011;25977;45.462;9.210;2023-04-24T09:01:40;3.55;;;1.23;;
40256;SDS011;25977;45.462;9.210;2023-04-24T09:04:07;3.22;;;1.17;;
40256;SDS011;25977;45.462;9.210;2023-04-24T09:06:38;0.77;;;0.77;;
40256;SDS011;25977;45.462;9.210;2023-04-24T09:09:04;1.10;;;1.10;;
40256;SDS011;25977;45.462;9.210;2023-04-24T09:11:31;1.60;;;1.50;;
40256;SDS011;25977;45.462;9.210;2023-04-24T09:14:00;1.88;;;0.90;;
40256;SDS011;25977;45.462;9.210;2023-04-24T09:16:26;1.98;;;0.98;;
40256;SDS011;25977;45.462;9.210;2023-04-24T09:18:52;1.13;;;0.77;;
40256;SDS011;25977;45.462;9.210;2023-04-24T09:21:20;1.00;;;1.00;;
40256;SDS011;25977;45.462;9.210;2023-04-24T09:23:47;1.25;;;1.17;;
40256;SDS011;25977;45.462;9.210;2023-04-24T09:26:24;1.52;;;1.13;;
40256;SDS011;25977;45.462;9.210;2023-04-24T09:28:50;1.15;;;1.08;;
40256;SDS011;25977;45.462;9.210;2023-04-24T09:31:18;1.67;;;0.88;;
40256;SDS011;25977;45.462;9.210;2023-04-24T09:33:57;0.93;;;0.93;;
40256;SDS011;25977;45.462;9.210;2023-04-24T09:36:42;1.50;;;1.20;;
40256;SDS011;25977;45.462;9.210;2023-04-24T09:39:11;3.88;;;1.10;;
40256;SDS011;25977;45.462;9.210;2023-04-24T09:41:46;1.17;;;1.10;;
40256;SDS011;25977;45.462;9.210;2023-04-24T09:44:20;3.17;;;1.33;;
40256;SDS011;25977;45.462;9.210;2023-04-24T09:46:51;2.85;;;1.42;;
40256;SDS011;25977;45.462;9.210;2023-04-24T09:49:22;3.17;;;1.30;;
40256;SDS011;25977;45.462;9.210;2023-04-24T09:51:52;1.55;;;1.17;;
40256;SDS011;25977;45.462;9.210;2023-04-24T09:54:35;4.95;;;0.98;;
40256;SDS011;25977;45.462;9.210;2023-04-24T09:57:04;5.88;;;1.25;;
40256;SDS011;25977;45.462;9.210;2023-04-24T09:59:32;1.33;;;1.33;;
40256;SDS011;25977;45.462;9.210;2023-04-24T10:01:58;1.92;;;1.30;;
40256;SDS011;25977;45.462;9.210;2023-04-24T10:04:26;1.42;;;1.33;;
40256;SDS011;25977;45.462;9.210;2023-04-24T10:06:54;3.17;;;1.65;;
40256;SDS011;25977;45.462;9.210;2023-04-24T10:09:22;1.80;;;1.70;;
40256;SDS011;25977;45.462;9.210;2023-04-24T10:11:50;1.50;;;1.40;;
40256;SDS011;25977;45.462;9.210;2023-04-24T10:14:21;1.20;;;1.20;;
40256;SDS011;25977;45.462;9.210;2023-04-24T10:16:49;1.10;;;0.95;;
40256;SDS011;25977;45.462;9.210;2023-04-24T10:19:17;3.42;;;1.30;;
40256;SDS011;25977;45.462;9.210;2023-04-24T10:21:45;2.13;;;1.60;;
40256;SDS011;25977;45.462;9.210;2023-04-24T10:24:14;1.35;;;1.08;;
40256;SDS011;25977;45.462;9.210;2023-04-24T10:26:40;2.38;;;1.00;;
40256;SDS011;25977;45.462;9.210;2023-04-24T10:29:06;0.80;;;0.80;;
40256;SDS011;25977;45.462;9.210;2023-04-24T10:31:35;0.73;;;0.73;;
40256;SDS011;25977;45.462;9.210;2023-04-24T10:34:02;0.98;;;0.93;;
40256;SDS011;25977;45.462;9.210;2023-04-24T10:36:36;1.00;;;0.88;;
40256;SDS011;25977;45.462;9.210;2023-04-24T10:39:08;1.10;;;0.60;;
40256;SDS011;25977;45.462;9.210;2023-04-24T10:41:37;0.40;;;0.40;;
40256;SDS011;25977;45.462;9.210;2023-04-24T10:46:32;1.05;;;1.00;;
40256;SDS011;25977;45.462;9.210;2023-04-24T10:48:58;0.57;;;0.57;;
40256;SDS011;25977;45.462;9.210;2023-04-24T10:54:27;0.77;;;0.77;;
40256;SDS011;25977;45.462;9.210;2023-04-24T10:59:51;0.32;;;0.32;;
40256;SDS011;25977;45.462;9.210;2023-04-24T11:02:40;0.30;;;0.30;;
40256;SDS011;25977;45.462;9.210;2023-04-24T11:05:14;0.80;;;0.60;;
40256;SDS011;25977;45.462;9.210;2023-04-24T11:10:47;0.55;;;0.55;;
40256;SDS011;25977;45.462;9.210;2023-04-24T11:13:26;0.65;;;0.55;;
40256;SDS011;25977;45.462;9.210;2023-04-24T11:21:38;2.83;;;1.23;;
40256;SDS011;25977;45.462;9.210;2023-04-24T11:25:19;0.50;;;0.50;;
40256;SDS011;25977;45.462;9.210;2023-04-24T11:27:22;1.55;;;0.80;;
40256;SDS011;25977;45.462;9.210;2023-04-24T11:29:48;1.55;;;0.47;;
40256;SDS011;25977;45.462;9.210;2023-04-24T11:32:27;1.77;;;0.65;;
40256;SDS011;25977;45.462;9.210;2023-04-24T11:34:57;0.75;;;0.60;;
40256;SDS011;25977;45.462;9.210;2023-04-24T11:37:33;0.57;;;0.57;;
40256;SDS011;25977;45.462;9.210;2023-04-24T11:40:06;0.98;;;0.70;;
40256;SDS011;25977;45.462;9.210;2023-04-24T11:42:37;1.73;;;1.05;;
40256;SDS011;25977;45.462;9.210;2023-04-24T11:45:09;1.05;;;0.95;;
40256;SDS011;25977;45.462;9.210;2023-04-24T11:47:36;0.80;;;0.80;;
40256;SDS011;25977;45.462;9.210;2023-04-24T11:50:02;0.82;;;0.65;;
40256;SDS011;25977;45.462;9.210;2023-04-24T11:52:30;0.60;;;0.60;;
40256;SDS011;25977;45.462;9.210;2023-04-24T11:54:56;0.88;;;0.55;;
40256;SDS011;25977;45.462;9.210;2023-04-24T11:57:22;1.63;;;0.40;;
40256;SDS011;25977;45.462;9.210;2023-04-24T11:59:51;2.22;;;0.70;;
40256;SDS011;25977;45.462;9.210;2023-04-24T12:02:20;3.05;;;0.80;;
40256;SDS011;25977;45.462;9.210;2023-04-24T12:04:50;1.27;;;0.50;;
40256;SDS011;25977;45.462;9.210;2023-04-24T12:07:19;0.60;;;0.47;;
40256;SDS011;25977;45.462;9.210;2023-04-24T12:12:13;0.50;;;0.50;;
40256;SDS011;25977;45.462;9.210;2023-04-24T12:14:44;0.82;;;0.43;;
40256;SDS011;25977;45.462;9.210;2023-04-24T12:17:12;1.98;;;0.40;;
40256;SDS011;25977;45.462;9.210;2023-04-24T12:19:38;4.38;;;0.47;;
40256;SDS011;25977;45.462;9.210;2023-04-24T12:22:11;0.50;;;0.50;;
40256;SDS011;25977;45.462;9.210;2023-04-24T12:24:54;0.43;;;0.43;;
40256;SDS011;25977;45.462;9.210;2023-04-24T12:27:25;0.45;;;0.45;;
40256;SDS011;25977;45.462;9.210;2023-04-24T12:29:56;0.50;;;0.50;;
40256;SDS011;25977;45.462;9.210;2023-04-24T12:32:23;0.25;;;0.25;;
40256;SDS011;25977;45.462;9.210;2023-04-24T12:34:50;0.30;;;0.30;;
40256;SDS011;25977;45.462;9.210;2023-04-24T12:37:17;0.40;;;0.40;;
40256;SDS011;25977;45.462;9.210;2023-04-24T12:42:28;1.33;;;0.73;;
40256;SDS011;25977;45.462;9.210;2023-04-24T12:44:58;0.63;;;0.60;;
40256;SDS011;25977;45.462;9.210;2023-04-24T12:47:26;0.40;;;0.40;;
40256;SDS011;25977;45.462;9.210;2023-04-24T12:49:52;2.08;;;0.47;;
40256;SDS011;25977;45.462;9.210;2023-04-24T12:52:20;0.40;;;0.40;;
40256;SDS011;25977;45.462;9.210;2023-04-24T12:54:46;1.58;;;0.22;;
40256;SDS011;25977;45.462;9.210;2023-04-24T12:57:12;0.40;;;0.30;;
40256;SDS011;25977;45.462;9.210;2023-04-24T12:59:38;0.55;;;0.30;;
40256;SDS011;25977;45.462;9.210;2023-04-24T13:02:04;0.40;;;0.40;;
40256;SDS011;25977;45.462;9.210;2023-04-24T13:04:31;1.08;;;0.70;;
40256;SDS011;25977;45.462;9.210;2023-04-24T13:06:57;0.35;;;0.35;;
40256;SDS011;25977;45.462;9.210;2023-04-24T13:09:23;0.85;;;0.30;;
40256;SDS011;25977;45.462;9.210;2023-04-24T13:11:49;0.60;;;0.60;;
40256;SDS011;25977;45.462;9.210;2023-04-24T13:14:15;0.30;;;0.20;;
40256;SDS011;25977;45.462;9.210;2023-04-24T13:16:41;1.05;;;0.20;;
40256;SDS011;25977;45.462;9.210;2023-04-24T13:19:06;0.68;;;0.55;;
40256;SDS011;25977;45.462;9.210;2023-04-24T13:21:32;0.32;;;0.32;;
40256;SDS011;25977;45.462;9.210;2023-04-24T13:23:59;1.45;;;0.30;;
40256;SDS011;25977;45.462;9.210;2023-04-24T13:26:24;0.30;;;0.10;;
40256;SDS011;25977;45.462;9.210;2023-04-24T13:28:50;0.20;;;0.20;;
40256;SDS011;25977;45.462;9.210;2023-04-24T13:31:16;0.20;;;0.20;;
40256;SDS011;25977;45.462;9.210;2023-04-24T13:33:41;2.75;;;0.20;;
40256;SDS011;25977;45.462;9.210;2023-04-24T13:36:07;1.88;;;0.20;;
40256;SDS011;25977;45.462;9.210;2023-04-24T13:38:33;0.40;;;0.20;;
40256;SDS011;25977;45.462;9.210;2023-04-24T13:40:59;0.90;;;0.22;;
40256;SDS011;25977;45.462;9.210;2023-04-24T13:43:25;0.17;;;0.15;;
40256;SDS011;25977;45.462;9.210;2023-04-24T13:45:51;0.30;;;0.20;;
40256;SDS011;25977;45.462;9.210;2023-04-24T13:48:16;0.13;;;0.10;;
40256;SDS011;25977;45.462;9.210;2023-04-24T13:50:43;0.17;;;0.17;;
40256;SDS011;25977;45.462;9.210;2023-04-24T13:53:09;2.40;;;0.20;;
40256;SDS011;25977;45.462;9.210;2023-04-24T13:55:35;10.93;;;0.35;;
40256;SDS011;25977;45.462;9.210;2023-04-24T13:58:01;0.20;;;0.20;;
40256;SDS011;25977;45.462;9.210;2023-04-24T14:00:27;0.32;;;0.10;;
40256;SDS011;25977;45.462;9.210;2023-04-24T14:02:53;0.30;;;0.20;;
40256;SDS011;25977;45.462;9.210;2023-04-24T14:05:19;0.43;;;0.10;;
40256;SDS011;25977;45.462;9.210;2023-04-24T14:07:46;0.20;;;0.20;;
40256;SDS011;25977;45.462;9.210;2023-04-24T14:10:12;0.30;;;0.30;;
40256;SDS011;25977;45.462;9.210;2023-04-24T14:12:38;0.20;;;0.20;;
40256;SDS011;25977;45.462;9.210;2023-04-24T14:15:03;0.40;;;0.32;;
40256;SDS011;25977;45.462;9.210;2023-04-24T14:17:30;0.20;;;0.20;;
40256;SDS011;25977;45.462;9.210;2023-04-24T14:19:56;2.53;;;0.50;;
40256;SDS011;25977;45.462;9.210;2023-04-24T14:22:22;0.20;;;0.10;;
40256;SDS011;25977;45.462;9.210;2023-04-24T14:24:47;0.10;;;0.10;;
40256;SDS011;25977;45.462;9.210;2023-04-24T14:27:13;0.40;;;0.20;;
40256;SDS011;25977;45.462;9.210;2023-04-24T14:29:39;0.10;;;0.10;;
40256;SDS011;25977;45.462;9.210;2023-04-24T14:32:04;0.10;;;0.10;;
40256;SDS011;25977;45.462;9.210;2023-04-24T14:34:30;0.10;;;0.10;;
40256;SDS011;25977;45.462;9.210;2023-04-24T14:36:56;1.13;;;0.20;;
40256;SDS011;25977;45.462;9.210;2023-04-24T14:39:22;0.28;;;0.20;;
40256;SDS011;25977;45.462;9.210;2023-04-24T14:41:48;0.10;;;0.10;;
40256;SDS011;25977;45.462;9.210;2023-04-24T14:44:13;0.45;;;0.20;;
40256;SDS011;25977;45.462;9.210;2023-04-24T14:46:39;0.10;;;0.10;;
40256;SDS011;25977;45.462;9.210;2023-04-24T14:49:05;0.38;;;0.32;;
40256;SDS011;25977;45.462;9.210;2023-04-24T14:51:30;0.68;;;0.25;;
40256;SDS011;25977;45.462;9.210;2023-04-24T14:53:57;0.40;;;0.10;;
40256;SDS011;25977;45.462;9.210;2023-04-24T14:56:23;0.52;;;0.10;;
40256;SDS011;25977;45.462;9.210;2023-04-24T14:58:49;0.20;;;0.20;;
40256;SDS011;25977;45.462;9.210;2023-04-24T15:01:15;0.08;;;0.08;;
40256;SDS011;25977;45.462;9.210;2023-04-24T15:03:40;0.55;;;0.13;;
40256;SDS011;25977;45.462;9.210;2023-04-24T15:06:06;0.10;;;0.10;;
40256;SDS011;25977;45.462;9.210;2023-04-24T15:08:32;0.10;;;0.10;;
40256;SDS011;25977;45.462;9.210;2023-04-24T15:10:58;0.32;;;0.32;;
40256;SDS011;25977;45.462;9.210;2023-04-24T15:13:23;0.50;;;0.47;;